sensor_id;sensor_type;location;lat;lon;timestamp;temperature;humidity
62809;DHT22;48848;39.002;-94.584;2023-09-18T00:00:23;19.80;53.40
62809;DHT22;48848;39.002;-94.584;2023-09-18T00:02:49;19.70;53.40
62809;DHT22;48848;39.002;-94.584;2023-09-18T00:05:15;19.80;57.10
62809;DHT22;48848;39.002;-94.584;2023-09-18T00:07:41;20.00;57.30
62809;DHT22;48848;39.002;-94.584;2023-09-18T00:10:09;20.30;56.60
62809;DHT22;48848;39.002;-94.584;2023-09-18T00:12:35;20.40;55.80
62809;DHT22;48848;39.002;-94.584;2023-09-18T00:15:01;20.60;55.10
62809;DHT22;48848;39.002;-94.584;2023-09-18T00:17:27;20.70;54.70
62809;DHT22;48848;39.002;-94.584;2023-09-18T00:19:53;20.80;54.40
62809;DHT22;48848;39.002;-94.584;2023-09-18T00:22:19;20.90;54.40
62809;DHT22;48848;39.002;-94.584;2023-09-18T00:24:46;21.00;54.30
62809;DHT22;48848;39.002;-94.584;2023-09-18T00:27:12;21.00;54.20
62809;DHT22;48848;39.002;-94.584;2023-09-18T00:29:39;21.00;54.20
62809;DHT22;48848;39.002;-94.584;2023-09-18T00:32:05;21.10;54.20
62809;DHT22;48848;39.002;-94.584;2023-09-18T00:34:31;21.10;54.30
62809;DHT22;48848;39.002;-94.584;2023-09-18T00:36:57;21.20;54.30
62809;DHT22;48848;39.002;-94.584;2023-09-18T00:39:25;21.20;54.30
62809;DHT22;48848;39.002;-94.584;2023-09-18T00:41:50;21.30;54.30
62809;DHT22;48848;39.002;-94.584;2023-09-18T00:44:22;21.30;54.40
62809;DHT22;48848;39.002;-94.584;2023-09-18T00:46:48;21.20;52.40
62809;DHT22;48848;39.002;-94.584;2023-09-18T00:49:17;21.00;51.90
62809;DHT22;48848;39.002;-94.584;2023-09-18T00:51:44;20.80;52.00
62809;DHT22;48848;39.002;-94.584;2023-09-18T00:54:10;20.60;52.10
62809;DHT22;48848;39.002;-94.584;2023-09-18T00:56:36;20.50;53.30
62809;DHT22;48848;39.002;-94.584;2023-09-18T00:59:02;20.30;52.50
62809;DHT22;48848;39.002;-94.584;2023-09-18T01:01:30;20.20;52.60
62809;DHT22;48848;39.002;-94.584;2023-09-18T01:03:57;20.10;52.60
62809;DHT22;48848;39.002;-94.584;2023-09-18T01:06:24;20.10;56.60
62809;DHT22;48848;39.002;-94.584;2023-09-18T01:08:53;20.30;56.60
62809;DHT22;48848;39.002;-94.584;2023-09-18T01:11:26;20.60;56.40
62809;DHT22;48848;39.002;-94.584;2023-09-18T01:16:27;20.80;55.70
62809;DHT22;48848;39.002;-94.584;2023-09-18T01:18:56;21.00;55.60
62809;DHT22;48848;39.002;-94.584;2023-09-18T01:21:22;21.00;55.10
62809;DHT22;48848;39.002;-94.584;2023-09-18T01:23:48;21.10;54.80
62809;DHT22;48848;39.002;-94.584;2023-09-18T01:26:14;21.20;54.70
62809;DHT22;48848;39.002;-94.584;2023-09-18T01:28:40;21.30;54.70
62809;DHT22;48848;39.002;-94.584;2023-09-18T01:31:06;21.30;54.70
62809;DHT22;48848;39.002;-94.584;2023-09-18T01:33:33;21.30;54.60
62809;DHT22;48848;39.002;-94.584;2023-09-18T01:35:59;21.40;54.70
62809;DHT22;48848;39.002;-94.584;2023-09-18T01:38:26;21.40;54.70
62809;DHT22;48848;39.002;-94.584;2023-09-18T01:40:52;21.50;54.80
62809;DHT22;48848;39.002;-94.584;2023-09-18T01:43:19;21.50;54.80
62809;DHT22;48848;39.002;-94.584;2023-09-18T01:45:44;21.50;54.90
62809;DHT22;48848;39.002;-94.584;2023-09-18T01:48:11;21.50;54.90
62809;DHT22;48848;39.002;-94.584;2023-09-18T01:50:37;21.60;55.00
62809;DHT22;48848;39.002;-94.584;2023-09-18T01:53:05;21.60;55.00
62809;DHT22;48848;39.002;-94.584;2023-09-18T01:55:31;21.60;55.10
62809;DHT22;48848;39.002;-94.584;2023-09-18T01:57:58;21.60;55.10
62809;DHT22;48848;39.002;-94.584;2023-09-18T02:00:24;21.60;55.10
62809;DHT22;48848;39.002;-94.584;2023-09-18T02:02:50;21.70;55.20
62809;DHT22;48848;39.002;-94.584;2023-09-18T02:05:16;21.70;55.30
62809;DHT22;48848;39.002;-94.584;2023-09-18T02:07:42;21.70;55.40
62809;DHT22;48848;39.002;-94.584;2023-09-18T02:10:08;21.80;55.40
62809;DHT22;48848;39.002;-94.584;2023-09-18T02:12:33;21.70;55.40
62809;DHT22;48848;39.002;-94.584;2023-09-18T02:14:59;21.80;55.60
62809;DHT22;48848;39.002;-94.584;2023-09-18T02:17:30;21.80;55.60
62809;DHT22;48848;39.002;-94.584;2023-09-18T02:19:55;21.80;54.30
62809;DHT22;48848;39.002;-94.584;2023-09-18T02:22:21;21.70;51.90
62809;DHT22;48848;39.002;-94.584;2023-09-18T02:24:47;21.40;52.10
62809;DHT22;48848;39.002;-94.584;2023-09-18T02:27:13;21.20;52.30
62809;DHT22;48848;39.002;-94.584;2023-09-18T02:29:39;21.00;52.10
62809;DHT22;48848;39.002;-94.584;2023-09-18T02:32:05;20.80;52.20
62809;DHT22;48848;39.002;-94.584;2023-09-18T02:34:31;20.70;52.30
62809;DHT22;48848;39.002;-94.584;2023-09-18T02:36:56;20.50;52.40
62809;DHT22;48848;39.002;-94.584;2023-09-18T02:39:22;20.40;52.50
62809;DHT22;48848;39.002;-94.584;2023-09-18T02:41:48;20.30;52.40
62809;DHT22;48848;39.002;-94.584;2023-09-18T02:44:14;20.20;52.50
62809;DHT22;48848;39.002;-94.584;2023-09-18T02:46:41;20.10;52.60
62809;DHT22;48848;39.002;-94.584;2023-09-18T02:49:07;20.40;57.90
62809;DHT22;48848;39.002;-94.584;2023-09-18T02:51:33;20.60;56.90
62809;DHT22;48848;39.002;-94.584;2023-09-18T02:53:59;20.80;56.90
62809;DHT22;48848;39.002;-94.584;2023-09-18T02:56:25;20.90;56.60
62809;DHT22;48848;39.002;-94.584;2023-09-18T02:58:50;21.00;56.20
62809;DHT22;48848;39.002;-94.584;2023-09-18T03:01:16;21.10;56.00
62809;DHT22;48848;39.002;-94.584;2023-09-18T03:03:42;21.20;55.80
62809;DHT22;48848;39.002;-94.584;2023-09-18T03:06:08;21.20;55.70
62809;DHT22;48848;39.002;-94.584;2023-09-18T03:08:35;21.30;55.70
62809;DHT22;48848;39.002;-94.584;2023-09-18T03:11:00;21.30;55.60
62809;DHT22;48848;39.002;-94.584;2023-09-18T03:13:27;21.40;55.50
62809;DHT22;48848;39.002;-94.584;2023-09-18T03:15:54;21.50;55.60
62809;DHT22;48848;39.002;-94.584;2023-09-18T03:18:20;21.50;55.60
62809;DHT22;48848;39.002;-94.584;2023-09-18T03:20:46;21.50;55.60
62809;DHT22;48848;39.002;-94.584;2023-09-18T03:23:11;21.60;55.70
62809;DHT22;48848;39.002;-94.584;2023-09-18T03:25:37;21.60;55.50
62809;DHT22;48848;39.002;-94.584;2023-09-18T03:28:03;21.60;55.60
62809;DHT22;48848;39.002;-94.584;2023-09-18T03:30:29;21.60;55.70
62809;DHT22;48848;39.002;-94.584;2023-09-18T03:32:55;21.60;55.80
62809;DHT22;48848;39.002;-94.584;2023-09-18T03:35:21;21.60;55.90
62809;DHT22;48848;39.002;-94.584;2023-09-18T03:37:50;21.60;56.00
62809;DHT22;48848;39.002;-94.584;2023-09-18T03:40:17;21.60;56.10
62809;DHT22;48848;39.002;-94.584;2023-09-18T03:42:43;21.60;56.10
62809;DHT22;48848;39.002;-94.584;2023-09-18T03:45:09;21.60;56.20
62809;DHT22;48848;39.002;-94.584;2023-09-18T03:47:36;21.60;56.40
62809;DHT22;48848;39.002;-94.584;2023-09-18T03:50:02;21.60;56.50
62809;DHT22;48848;39.002;-94.584;2023-09-18T03:52:28;21.70;56.80
62809;DHT22;48848;39.002;-94.584;2023-09-18T03:54:54;21.70;57.00
62809;DHT22;48848;39.002;-94.584;2023-09-18T03:57:20;21.70;57.60
62809;DHT22;48848;39.002;-94.584;2023-09-18T03:59:46;21.70;58.40
62809;DHT22;48848;39.002;-94.584;2023-09-18T04:02:12;21.70;58.80
62809;DHT22;48848;39.002;-94.584;2023-09-18T04:04:38;21.70;58.50
62809;DHT22;48848;39.002;-94.584;2023-09-18T04:07:07;21.70;58.30
62809;DHT22;48848;39.002;-94.584;2023-09-18T04:09:33;21.70;58.20
62809;DHT22;48848;39.002;-94.584;2023-09-18T04:12:02;21.70;57.90
62809;DHT22;48848;39.002;-94.584;2023-09-18T04:14:28;21.70;57.80
62809;DHT22;48848;39.002;-94.584;2023-09-18T04:16:54;21.80;58.20
62809;DHT22;48848;39.002;-94.584;2023-09-18T04:19:19;21.80;58.00
62809;DHT22;48848;39.002;-94.584;2023-09-18T04:21:45;21.80;57.90
62809;DHT22;48848;39.002;-94.584;2023-09-18T04:24:11;21.80;58.00
62809;DHT22;48848;39.002;-94.584;2023-09-18T04:26:37;21.80;57.90
62809;DHT22;48848;39.002;-94.584;2023-09-18T04:29:03;21.80;57.80
62809;DHT22;48848;39.002;-94.584;2023-09-18T04:31:29;21.80;57.60
62809;DHT22;48848;39.002;-94.584;2023-09-18T04:33:55;21.80;57.50
62809;DHT22;48848;39.002;-94.584;2023-09-18T04:36:21;21.80;57.40
62809;DHT22;48848;39.002;-94.584;2023-09-18T04:38:47;21.80;57.30
62809;DHT22;48848;39.002;-94.584;2023-09-18T04:41:13;21.80;57.40
62809;DHT22;48848;39.002;-94.584;2023-09-18T04:43:40;21.80;57.30
62809;DHT22;48848;39.002;-94.584;2023-09-18T04:46:06;21.80;57.20
62809;DHT22;48848;39.002;-94.584;2023-09-18T04:48:32;21.80;57.30
62809;DHT22;48848;39.002;-94.584;2023-09-18T04:50:58;21.80;57.10
62809;DHT22;48848;39.002;-94.584;2023-09-18T04:53:25;21.80;57.10
62809;DHT22;48848;39.002;-94.584;2023-09-18T04:55:51;21.80;57.10
62809;DHT22;48848;39.002;-94.584;2023-09-18T04:58:17;21.90;57.10
62809;DHT22;48848;39.002;-94.584;2023-09-18T05:00:43;21.90;57.00
62809;DHT22;48848;39.002;-94.584;2023-09-18T05:03:09;21.90;57.00
62809;DHT22;48848;39.002;-94.584;2023-09-18T05:05:36;21.90;57.00
62809;DHT22;48848;39.002;-94.584;2023-09-18T05:08:02;21.90;57.00
62809;DHT22;48848;39.002;-94.584;2023-09-18T05:10:28;21.90;56.90
62809;DHT22;48848;39.002;-94.584;2023-09-18T05:12:55;21.90;56.90
62809;DHT22;48848;39.002;-94.584;2023-09-18T05:15:27;21.90;56.80
62809;DHT22;48848;39.002;-94.584;2023-09-18T05:17:55;21.90;56.50
62809;DHT22;48848;39.002;-94.584;2023-09-18T05:20:26;22.00;56.40
62809;DHT22;48848;39.002;-94.584;2023-09-18T05:22:53;21.90;56.20
62809;DHT22;48848;39.002;-94.584;2023-09-18T05:25:19;21.90;56.10
62809;DHT22;48848;39.002;-94.584;2023-09-18T05:27:47;21.90;55.80
62809;DHT22;48848;39.002;-94.584;2023-09-18T05:30:18;21.90;55.70
62809;DHT22;48848;39.002;-94.584;2023-09-18T05:32:46;22.00;55.50
62809;DHT22;48848;39.002;-94.584;2023-09-18T05:35:13;21.90;55.80
62809;DHT22;48848;39.002;-94.584;2023-09-18T05:37:39;22.00;55.50
62809;DHT22;48848;39.002;-94.584;2023-09-18T05:40:09;22.00;55.20
62809;DHT22;48848;39.002;-94.584;2023-09-18T05:42:39;21.90;55.20
62809;DHT22;48848;39.002;-94.584;2023-09-18T05:45:08;22.00;55.30
62809;DHT22;48848;39.002;-94.584;2023-09-18T05:47:34;22.00;55.40
62809;DHT22;48848;39.002;-94.584;2023-09-18T05:50:07;22.00;55.30
62809;DHT22;48848;39.002;-94.584;2023-09-18T05:52:33;21.90;55.30
62809;DHT22;48848;39.002;-94.584;2023-09-18T05:54:59;22.00;55.20
62809;DHT22;48848;39.002;-94.584;2023-09-18T05:57:26;21.90;54.90
62809;DHT22;48848;39.002;-94.584;2023-09-18T05:59:54;21.90;55.00
62809;DHT22;48848;39.002;-94.584;2023-09-18T06:02:20;21.90;55.00
62809;DHT22;48848;39.002;-94.584;2023-09-18T06:04:46;21.90;55.00
62809;DHT22;48848;39.002;-94.584;2023-09-18T06:07:12;21.90;55.00
62809;DHT22;48848;39.002;-94.584;2023-09-18T06:09:38;21.90;56.10
62809;DHT22;48848;39.002;-94.584;2023-09-18T06:12:05;21.90;55.20
62809;DHT22;48848;39.002;-94.584;2023-09-18T06:14:31;21.90;55.40
62809;DHT22;48848;39.002;-94.584;2023-09-18T06:16:57;21.90;55.70
62809;DHT22;48848;39.002;-94.584;2023-09-18T06:19:23;21.90;55.70
62809;DHT22;48848;39.002;-94.584;2023-09-18T06:21:49;21.90;55.70
62809;DHT22;48848;39.002;-94.584;2023-09-18T06:24:14;21.90;55.70
62809;DHT22;48848;39.002;-94.584;2023-09-18T06:26:40;21.80;55.60
62809;DHT22;48848;39.002;-94.584;2023-09-18T06:29:06;21.90;55.70
62809;DHT22;48848;39.002;-94.584;2023-09-18T06:31:35;21.90;55.60
62809;DHT22;48848;39.002;-94.584;2023-09-18T06:34:00;21.90;55.70
62809;DHT22;48848;39.002;-94.584;2023-09-18T06:36:26;21.80;55.80
62809;DHT22;48848;39.002;-94.584;2023-09-18T06:38:52;21.90;56.10
62809;DHT22;48848;39.002;-94.584;2023-09-18T06:41:18;21.90;56.20
62809;DHT22;48848;39.002;-94.584;2023-09-18T06:43:44;21.90;56.10
62809;DHT22;48848;39.002;-94.584;2023-09-18T06:46:10;21.80;56.10
62809;DHT22;48848;39.002;-94.584;2023-09-18T06:48:36;21.80;56.20
62809;DHT22;48848;39.002;-94.584;2023-09-18T06:51:02;21.80;56.20
62809;DHT22;48848;39.002;-94.584;2023-09-18T06:53:28;21.80;56.20
62809;DHT22;48848;39.002;-94.584;2023-09-18T06:55:54;21.80;56.30
62809;DHT22;48848;39.002;-94.584;2023-09-18T06:58:20;21.80;56.40
62809;DHT22;48848;39.002;-94.584;2023-09-18T07:00:46;21.80;56.40
62809;DHT22;48848;39.002;-94.584;2023-09-18T07:03:12;21.80;56.40
62809;DHT22;48848;39.002;-94.584;2023-09-18T07:05:41;21.80;56.40
62809;DHT22;48848;39.002;-94.584;2023-09-18T07:08:08;21.80;56.40
62809;DHT22;48848;39.002;-94.584;2023-09-18T07:10:37;21.80;56.50
62809;DHT22;48848;39.002;-94.584;2023-09-18T07:13:03;21.80;56.60
62809;DHT22;48848;39.002;-94.584;2023-09-18T07:15:29;21.70;56.60
62809;DHT22;48848;39.002;-94.584;2023-09-18T07:17:55;21.80;56.70
62809;DHT22;48848;39.002;-94.584;2023-09-18T07:20:21;21.70;56.60
62809;DHT22;48848;39.002;-94.584;2023-09-18T07:22:48;21.80;56.70
62809;DHT22;48848;39.002;-94.584;2023-09-18T07:25:14;21.80;56.60
62809;DHT22;48848;39.002;-94.584;2023-09-18T07:27:40;21.80;56.50
62809;DHT22;48848;39.002;-94.584;2023-09-18T07:30:10;21.80;56.40
62809;DHT22;48848;39.002;-94.584;2023-09-18T07:32:36;21.80;56.60
62809;DHT22;48848;39.002;-94.584;2023-09-18T07:35:02;21.80;56.60
62809;DHT22;48848;39.002;-94.584;2023-09-18T07:37:30;21.70;56.70
62809;DHT22;48848;39.002;-94.584;2023-09-18T07:39:56;21.70;57.00
62809;DHT22;48848;39.002;-94.584;2023-09-18T07:42:25;21.70;57.00
62809;DHT22;48848;39.002;-94.584;2023-09-18T07:44:51;21.70;57.00
62809;DHT22;48848;39.002;-94.584;2023-09-18T07:47:17;21.70;56.80
62809;DHT22;48848;39.002;-94.584;2023-09-18T07:49:43;21.70;56.80
62809;DHT22;48848;39.002;-94.584;2023-09-18T07:52:08;21.70;56.80
62809;DHT22;48848;39.002;-94.584;2023-09-18T07:54:35;21.70;57.80
62809;DHT22;48848;39.002;-94.584;2023-09-18T07:57:01;21.70;56.80
62809;DHT22;48848;39.002;-94.584;2023-09-18T07:59:27;21.70;56.90
62809;DHT22;48848;39.002;-94.584;2023-09-18T08:01:53;21.70;56.90
62809;DHT22;48848;39.002;-94.584;2023-09-18T08:04:20;21.70;56.90
62809;DHT22;48848;39.002;-94.584;2023-09-18T08:06:46;21.70;57.00
62809;DHT22;48848;39.002;-94.584;2023-09-18T08:09:13;21.70;57.00
62809;DHT22;48848;39.002;-94.584;2023-09-18T08:11:42;21.60;57.10
62809;DHT22;48848;39.002;-94.584;2023-09-18T08:14:09;21.60;57.20
62809;DHT22;48848;39.002;-94.584;2023-09-18T08:16:37;21.60;58.30
62809;DHT22;48848;39.002;-94.584;2023-09-18T08:19:03;21.50;57.20
62809;DHT22;48848;39.002;-94.584;2023-09-18T08:21:29;21.60;57.30
62809;DHT22;48848;39.002;-94.584;2023-09-18T08:23:55;21.60;57.30
62809;DHT22;48848;39.002;-94.584;2023-09-18T08:26:21;21.60;57.20
62809;DHT22;48848;39.002;-94.584;2023-09-18T08:28:47;21.60;57.20
62809;DHT22;48848;39.002;-94.584;2023-09-18T08:31:13;21.50;57.30
62809;DHT22;48848;39.002;-94.584;2023-09-18T08:33:42;21.50;57.40
62809;DHT22;48848;39.002;-94.584;2023-09-18T08:36:08;21.50;57.70
62809;DHT22;48848;39.002;-94.584;2023-09-18T08:38:34;21.50;57.70
62809;DHT22;48848;39.002;-94.584;2023-09-18T08:41:00;21.40;57.60
62809;DHT22;48848;39.002;-94.584;2023-09-18T08:43:26;21.40;57.70
62809;DHT22;48848;39.002;-94.584;2023-09-18T08:45:53;21.40;57.90
62809;DHT22;48848;39.002;-94.584;2023-09-18T08:48:20;21.40;58.10
62809;DHT22;48848;39.002;-94.584;2023-09-18T08:50:46;21.30;58.00
62809;DHT22;48848;39.002;-94.584;2023-09-18T08:53:12;21.40;58.00
62809;DHT22;48848;39.002;-94.584;2023-09-18T08:55:38;21.40;57.90
62809;DHT22;48848;39.002;-94.584;2023-09-18T08:58:06;21.30;57.90
62809;DHT22;48848;39.002;-94.584;2023-09-18T09:00:31;21.30;58.00
62809;DHT22;48848;39.002;-94.584;2023-09-18T09:02:57;21.30;58.20
62809;DHT22;48848;39.002;-94.584;2023-09-18T09:05:24;21.30;58.30
62809;DHT22;48848;39.002;-94.584;2023-09-18T09:07:50;21.30;58.90
62809;DHT22;48848;39.002;-94.584;2023-09-18T09:10:16;21.20;58.20
62809;DHT22;48848;39.002;-94.584;2023-09-18T09:15:14;21.20;58.30
62809;DHT22;48848;39.002;-94.584;2023-09-18T09:17:40;21.20;58.40
62809;DHT22;48848;39.002;-94.584;2023-09-18T09:20:09;21.20;58.30
62809;DHT22;48848;39.002;-94.584;2023-09-18T09:22:38;21.10;58.60
62809;DHT22;48848;39.002;-94.584;2023-09-18T09:25:25;21.10;58.40
62809;DHT22;48848;39.002;-94.584;2023-09-18T09:27:52;21.10;58.60
62809;DHT22;48848;39.002;-94.584;2023-09-18T09:30:28;21.10;58.50
62809;DHT22;48848;39.002;-94.584;2023-09-18T09:32:55;21.10;58.50
62809;DHT22;48848;39.002;-94.584;2023-09-18T09:37:47;21.10;58.70
62809;DHT22;48848;39.002;-94.584;2023-09-18T09:40:13;21.00;58.80
62809;DHT22;48848;39.002;-94.584;2023-09-18T09:42:40;21.00;58.70
62809;DHT22;48848;39.002;-94.584;2023-09-18T09:45:15;21.00;58.80
62809;DHT22;48848;39.002;-94.584;2023-09-18T09:47:44;21.00;58.90
62809;DHT22;48848;39.002;-94.584;2023-09-18T09:50:13;21.00;59.00
62809;DHT22;48848;39.002;-94.584;2023-09-18T09:52:48;21.00;58.90
62809;DHT22;48848;39.002;-94.584;2023-09-18T09:55:25;21.00;59.00
62809;DHT22;48848;39.002;-94.584;2023-09-18T09:57:54;21.00;59.00
62809;DHT22;48848;39.002;-94.584;2023-09-18T10:00:23;20.90;59.10
62809;DHT22;48848;39.002;-94.584;2023-09-18T10:02:56;20.90;59.10
62809;DHT22;48848;39.002;-94.584;2023-09-18T10:05:27;20.90;59.20
62809;DHT22;48848;39.002;-94.584;2023-09-18T10:07:56;20.90;59.30
62809;DHT22;48848;39.002;-94.584;2023-09-18T10:10:25;20.90;59.40
62809;DHT22;48848;39.002;-94.584;2023-09-18T10:12:52;20.90;59.30
62809;DHT22;48848;39.002;-94.584;2023-09-18T10:15:19;20.90;59.40
62809;DHT22;48848;39.002;-94.584;2023-09-18T10:17:45;20.90;59.50
62809;DHT22;48848;39.002;-94.584;2023-09-18T10:20:12;20.90;59.50
62809;DHT22;48848;39.002;-94.584;2023-09-18T10:22:52;20.90;59.40
62809;DHT22;48848;39.002;-94.584;2023-09-18T10:25:28;20.80;59.50
62809;DHT22;48848;39.002;-94.584;2023-09-18T10:27:54;20.80;59.30
62809;DHT22;48848;39.002;-94.584;2023-09-18T10:30:31;20.80;60.50
62809;DHT22;48848;39.002;-94.584;2023-09-18T10:32:58;20.80;59.60
62809;DHT22;48848;39.002;-94.584;2023-09-18T10:35:26;20.80;59.60
62809;DHT22;48848;39.002;-94.584;2023-09-18T10:37:53;20.70;59.60
62809;DHT22;48848;39.002;-94.584;2023-09-18T10:40:20;20.70;59.60
62809;DHT22;48848;39.002;-94.584;2023-09-18T10:42:46;20.70;59.60
62809;DHT22;48848;39.002;-94.584;2023-09-18T10:45:13;20.70;59.60
62809;DHT22;48848;39.002;-94.584;2023-09-18T10:47:42;20.70;59.70
62809;DHT22;48848;39.002;-94.584;2023-09-18T10:50:10;20.70;59.80
62809;DHT22;48848;39.002;-94.584;2023-09-18T10:52:42;20.70;59.70
62809;DHT22;48848;39.002;-94.584;2023-09-18T10:55:11;20.70;59.80
62809;DHT22;48848;39.002;-94.584;2023-09-18T10:57:37;20.70;59.80
62809;DHT22;48848;39.002;-94.584;2023-09-18T11:00:04;20.60;59.70
62809;DHT22;48848;39.002;-94.584;2023-09-18T11:02:41;20.60;59.80
62809;DHT22;48848;39.002;-94.584;2023-09-18T11:05:07;20.60;59.90
62809;DHT22;48848;39.002;-94.584;2023-09-18T11:07:33;20.60;59.90
62809;DHT22;48848;39.002;-94.584;2023-09-18T11:09:59;20.60;60.00
62809;DHT22;48848;39.002;-94.584;2023-09-18T11:12:45;20.60;60.00
62809;DHT22;48848;39.002;-94.584;2023-09-18T11:15:24;20.60;60.00
62809;DHT22;48848;39.002;-94.584;2023-09-18T11:17:59;20.60;60.10
62809;DHT22;48848;39.002;-94.584;2023-09-18T11:20:28;20.60;60.10
62809;DHT22;48848;39.002;-94.584;2023-09-18T11:25:49;20.50;60.00
62809;DHT22;48848;39.002;-94.584;2023-09-18T11:28:23;20.50;60.10
62809;DHT22;48848;39.002;-94.584;2023-09-18T11:30:50;20.50;60.20
62809;DHT22;48848;39.002;-94.584;2023-09-18T11:33:29;20.50;60.30
62809;DHT22;48848;39.002;-94.584;2023-09-18T11:35:55;20.50;60.30
62809;DHT22;48848;39.002;-94.584;2023-09-18T11:38:21;20.50;60.30
62809;DHT22;48848;39.002;-94.584;2023-09-18T11:40:48;20.50;60.50
62809;DHT22;48848;39.002;-94.584;2023-09-18T11:45:58;20.40;60.20
62809;DHT22;48848;39.002;-94.584;2023-09-18T11:48:25;20.40;60.40
62809;DHT22;48848;39.002;-94.584;2023-09-18T11:50:55;20.40;60.50
62809;DHT22;48848;39.002;-94.584;2023-09-18T11:53:21;20.40;60.50
62809;DHT22;48848;39.002;-94.584;2023-09-18T11:55:48;20.40;60.50
62809;DHT22;48848;39.002;-94.584;2023-09-18T11:58:14;20.30;60.60
62809;DHT22;48848;39.002;-94.584;2023-09-18T12:00:41;20.40;60.60
62809;DHT22;48848;39.002;-94.584;2023-09-18T12:03:16;20.30;60.60
62809;DHT22;48848;39.002;-94.584;2023-09-18T12:08:22;20.20;61.00
62809;DHT22;48848;39.002;-94.584;2023-09-18T12:10:51;20.10;61.10
62809;DHT22;48848;39.002;-94.584;2023-09-18T12:13:17;20.10;61.20
62809;DHT22;48848;39.002;-94.584;2023-09-18T12:15:43;20.10;61.30
62809;DHT22;48848;39.002;-94.584;2023-09-18T12:18:09;20.10;61.40
62809;DHT22;48848;39.002;-94.584;2023-09-18T12:20:37;20.10;61.50
62809;DHT22;48848;39.002;-94.584;2023-09-18T12:23:03;20.10;61.50
62809;DHT22;48848;39.002;-94.584;2023-09-18T12:25:29;20.10;61.60
62809;DHT22;48848;39.002;-94.584;2023-09-18T12:27:55;20.00;61.60
62809;DHT22;48848;39.002;-94.584;2023-09-18T12:30:21;20.00;61.70
62809;DHT22;48848;39.002;-94.584;2023-09-18T12:32:49;20.00;61.70
62809;DHT22;48848;39.002;-94.584;2023-09-18T12:35:15;20.00;61.70
62809;DHT22;48848;39.002;-94.584;2023-09-18T12:37:41;20.00;61.70
62809;DHT22;48848;39.002;-94.584;2023-09-18T12:40:08;20.00;61.90
62809;DHT22;48848;39.002;-94.584;2023-09-18T12:42:45;20.00;62.20
62809;DHT22;48848;39.002;-94.584;2023-09-18T12:45:12;20.00;62.40
62809;DHT22;48848;39.002;-94.584;2023-09-18T12:47:38;19.90;62.50
62809;DHT22;48848;39.002;-94.584;2023-09-18T12:50:05;20.00;62.50
62809;DHT22;48848;39.002;-94.584;2023-09-18T12:52:32;20.00;62.80
62809;DHT22;48848;39.002;-94.584;2023-09-18T12:54:58;20.00;62.90
62809;DHT22;48848;39.002;-94.584;2023-09-18T12:57:26;20.00;63.40
62809;DHT22;48848;39.002;-94.584;2023-09-18T12:59:53;20.00;64.10
62809;DHT22;48848;39.002;-94.584;2023-09-18T13:02:20;20.00;64.80
62809;DHT22;48848;39.002;-94.584;2023-09-18T13:04:53;20.00;64.90
62809;DHT22;48848;39.002;-94.584;2023-09-18T13:07:20;20.00;64.90
62809;DHT22;48848;39.002;-94.584;2023-09-18T13:09:59;20.00;65.10
62809;DHT22;48848;39.002;-94.584;2023-09-18T13:12:51;20.00;65.30
62809;DHT22;48848;39.002;-94.584;2023-09-18T13:15:29;20.00;65.50
62809;DHT22;48848;39.002;-94.584;2023-09-18T13:17:55;20.00;65.60
62809;DHT22;48848;39.002;-94.584;2023-09-18T13:20:28;20.00;65.50
62809;DHT22;48848;39.002;-94.584;2023-09-18T13:22:55;20.00;65.30
62809;DHT22;48848;39.002;-94.584;2023-09-18T13:27:50;20.10;65.00
62809;DHT22;48848;39.002;-94.584;2023-09-18T13:30:16;20.00;65.00
62809;DHT22;48848;39.002;-94.584;2023-09-18T13:32:44;20.00;65.00
62809;DHT22;48848;39.002;-94.584;2023-09-18T13:35:10;20.10;65.00
62809;DHT22;48848;39.002;-94.584;2023-09-18T13:37:39;20.10;65.00
62809;DHT22;48848;39.002;-94.584;2023-09-18T13:40:05;20.10;65.10
62809;DHT22;48848;39.002;-94.584;2023-09-18T13:42:34;20.10;64.80
62809;DHT22;48848;39.002;-94.584;2023-09-18T13:45:00;20.10;64.80
62809;DHT22;48848;39.002;-94.584;2023-09-18T13:47:27;20.10;64.50
62809;DHT22;48848;39.002;-94.584;2023-09-18T13:49:53;20.10;64.60
62809;DHT22;48848;39.002;-94.584;2023-09-18T13:52:28;20.20;64.20
62809;DHT22;48848;39.002;-94.584;2023-09-18T13:54:54;20.20;63.50
62809;DHT22;48848;39.002;-94.584;2023-09-18T13:57:20;20.20;63.70
62809;DHT22;48848;39.002;-94.584;2023-09-18T13:59:47;20.30;63.50
62809;DHT22;48848;39.002;-94.584;2023-09-18T14:02:14;20.30;63.40
62809;DHT22;48848;39.002;-94.584;2023-09-18T14:04:40;20.30;63.20
62809;DHT22;48848;39.002;-94.584;2023-09-18T14:07:06;20.30;62.80
62809;DHT22;48848;39.002;-94.584;2023-09-18T14:09:32;20.30;62.40
62809;DHT22;48848;39.002;-94.584;2023-09-18T14:11:58;20.30;62.60
62809;DHT22;48848;39.002;-94.584;2023-09-18T14:14:24;20.40;62.60
62809;DHT22;48848;39.002;-94.584;2023-09-18T14:16:50;20.40;62.20
62809;DHT22;48848;39.002;-94.584;2023-09-18T14:19:16;20.40;62.50
62809;DHT22;48848;39.002;-94.584;2023-09-18T14:21:42;20.40;62.50
62809;DHT22;48848;39.002;-94.584;2023-09-18T14:24:08;20.40;62.30
62809;DHT22;48848;39.002;-94.584;2023-09-18T14:26:35;20.40;62.30
62809;DHT22;48848;39.002;-94.584;2023-09-18T14:29:09;20.40;62.30
62809;DHT22;48848;39.002;-94.584;2023-09-18T14:31:36;20.40;62.10
62809;DHT22;48848;39.002;-94.584;2023-09-18T14:34:02;20.40;62.30
62809;DHT22;48848;39.002;-94.584;2023-09-18T14:36:28;20.40;62.50
62809;DHT22;48848;39.002;-94.584;2023-09-18T14:38:54;20.40;62.80
62809;DHT22;48848;39.002;-94.584;2023-09-18T14:41:21;20.40;63.60
62809;DHT22;48848;39.002;-94.584;2023-09-18T14:43:46;20.50;62.70
62809;DHT22;48848;39.002;-94.584;2023-09-18T14:46:13;20.50;62.50
62809;DHT22;48848;39.002;-94.584;2023-09-18T14:48:38;20.50;62.40
62809;DHT22;48848;39.002;-94.584;2023-09-18T14:51:04;20.50;62.30
62809;DHT22;48848;39.002;-94.584;2023-09-18T14:53:32;20.50;62.30
62809;DHT22;48848;39.002;-94.584;2023-09-18T14:55:59;20.50;62.80
62809;DHT22;48848;39.002;-94.584;2023-09-18T14:58:25;20.50;62.60
62809;DHT22;48848;39.002;-94.584;2023-09-18T15:00:50;20.40;62.60
62809;DHT22;48848;39.002;-94.584;2023-09-18T15:03:16;20.40;62.80
62809;DHT22;48848;39.002;-94.584;2023-09-18T15:05:42;20.50;62.70
62809;DHT22;48848;39.002;-94.584;2023-09-18T15:08:08;20.40;62.70
62809;DHT22;48848;39.002;-94.584;2023-09-18T15:10:34;20.50;62.60
62809;DHT22;48848;39.002;-94.584;2023-09-18T15:13:00;20.50;62.50
62809;DHT22;48848;39.002;-94.584;2023-09-18T15:15:25;20.50;62.30
62809;DHT22;48848;39.002;-94.584;2023-09-18T15:17:51;20.50;62.20
62809;DHT22;48848;39.002;-94.584;2023-09-18T15:20:18;20.50;62.10